x

Cape Elizabeth- 45nm Nw Of Aberdeen, Wa (46041) Wave Buoy

11:50am - Fri 24th Jun 2016 All times are PDT. -7 hours from GMT.

  • Sig Wave height 4.3ft
  • Swell Direction
  • Peak Period 6s
  • Average Period 6s
  • Wind
    16mph, 18mph gusts
  • Sea Temp 57°f
  • 空気 Temp 55°f
  • Sea Pressure 1024mb
  • Cape Elizabeth- 45nm Nw Of Aberdeen, Wa
  • Cape Elizabeth- 45nm Nw Of Aberdeen, Wa

More Historic Weather Station data

Upgrade to MSW Pro to gain access to the past 30 days of data for over 8000 Wavebouys and Weather Stations around the globe.

Join Pro

Comparision Forecast

View Surf forecast
   
Fri 06/24 11:50am 4.5ft 6s 6s 16 18 mph 1024mb 57f 55f
10:50am 4.5ft 8s 6s 9
mph
1023.3mb 56f 55f
9:50am 4.5ft 6s 6s 9
mph
1022.9mb 56f 56f
8:50am 4.5ft 7s 5s 11 13 mph 1022.3mb 56f 55f
7:50am 4ft 7s 5s 13 16 mph 1021.7mb 56f 57f
6:50am 4.5ft 7s 6s 13
mph
1021mb 57f 57f
5:50am 4ft 6s 6s 11 16 mph 1020.4mb 57f 57f
4:50am 4.5ft 17s 6s 11 13 mph 1020.2mb 57f 56f
3:50am 4ft 19s 6s 7 9 mph 1019.8mb 57f 56f
2:50am 4ft 9s 5s 11 13 mph 1019.7mb 58f 57f
1:50am 4ft 19s 6s 13 16 mph 1019.5mb 58f 58f
12:50am 4.5ft 7s 6s 11 13 mph 1019.6mb 58f 58f
Thu 06/23 11:50pm 4.5ft 6s 6s 9 11 mph 1019.6mb 58f 57f
10:50pm 4.5ft 6s 5s 11 13 mph 1019.5mb 58f 58f
9:50pm 4.5ft 5s 6s 9 13 mph 1019.3mb 58f 58f
8:50pm 5ft 6s 6s 7
mph
1019.1mb 58f 57f
7:50pm 5ft 6s 6s 9 11 mph 1019mb 58f 58f
6:50pm 4.5ft 7s 6s 9 11 mph 1018.7mb 58f 58f
5:50pm 4.5ft 6s 6s 11 13 mph 1018.5mb 58f 58f
4:50pm 4.5ft 19s 6s 9 11 mph 1018.3mb 58f 58f
3:50pm 4ft 6s 5s 9 11 mph 1018.1mb 59f 58f
2:50pm 4ft 6s 6s 4
mph
1017.9mb 58f 57f
1:50pm 3.5ft 5s 6s 4 7 mph 1017.7mb 58f 56f
12:50pm 4ft 9s 6s 2
mph
1017.3mb 58f 56f
11:50am 4ft 5s 5s 2 4 mph 1016.8mb 58f 55f
10:50am 4ft 5s 5s 9
mph
1016.3mb 57f 54f
9:50am 4ft 5s 5s 4
mph
1015.7mb 57f 57f
8:50am 4ft 7s 5s 9 11 mph 1015.2mb 57f 57f
7:50am 3.5ft 8s 5s 9 11 mph 1014.7mb 56f 57f
6:50am 3.5ft 8s 6s 9 11 mph 1014mb 56f 57f
5:50am 4.5ft 7s 5s 11 13 mph 1013.3mb 56f 57f
4:50am 4ft 8s 5s 13 16 mph 1012.7mb 57f 56f
3:50am 4ft 8s 5s 9 11 mph 1012.3mb 57f 57f
2:50am 4.5ft 8s 5s 9 13 mph 1012.5mb 57f 56f
12:50am 4ft 10s 5s 16 20 mph 1013.6mb 57f 57f
Wed 06/22 11:50pm 3.5ft 8s 5s 16 18 mph 1014.1mb 58f 56f
10:50pm 3.5ft 8s 6s 13 16 mph 1014.7mb 57f 56f
9:50pm 3.5ft 8s 6s 13 16 mph 1014.9mb 57f 56f
8:50pm 3.5ft 8s 6s 9
mph
1015.1mb 57f 56f
7:50pm 3.5ft 8s 6s 11 13 mph 1015.6mb 58f 55f
6:50pm 3.5ft 8s 7s 7 9 mph 1016.3mb 58f 56f
5:50pm 4ft 8s 7s 7 9 mph 1017mb 57f 57f
4:50pm 4.5ft 8s 7s 4 7 mph 1017.4mb 58f 57f
3:50pm 4.5ft 8s 7s 4
mph
1018.1mb 58f 58f
2:50pm 4.5ft 8s 7s 7 9 mph 1018.4mb 58f 58f
1:50pm 4.5ft 8s 6s 7
mph
1018.8mb 59f 58f
12:50pm 5ft 8s 7s 7
mph
1019mb 58f 58f
11:50am 5ft 8s 7s 7
mph
1019.4mb 58f 57f
10:50am 5ft 8s 7s 4 7 mph 1019.5mb 58f 57f
9:50am 5ft 8s 7s 4 7 mph 1019.8mb 57f 57f
8:50am 4.5ft 8s 7s 2
mph
1020mb 57f 57f
7:50am 3.5ft 8s 6s  -  2 mph 1019.9mb 57f 56f
5:50am 2.5ft 8s 6s 2
mph
1020.1mb 57f 56f
4:50am 3ft 8s 6s 4
mph
1020.2mb 57f 56f
3:50am 2.5ft 7s 6s 4 7 mph 1020.5mb 57f 56f
2:50am 3ft 8s 5s 7 9 mph 1020.7mb 57f 56f
1:50am 3ft 8s 6s 9
mph
1020.7mb 57f 57f
12:50am 3ft 6s 5s 9 11 mph 1021.4mb 57f 57f
Tue 06/21 11:50pm 3.5ft 7s 5s 11 13 mph 1022mb 58f 57f
10:50pm 3.5ft 6s 5s 13 16 mph 1022.5mb 58f 58f
9:50pm 3.5ft 7s 5s 13 16 mph 1022.8mb 58f 58f
8:50pm 3.5ft 7s 5s 16
mph
1023mb 58f 58f
7:50pm 4ft 7s 6s 13 16 mph 1023.5mb 58f 58f
6:50pm 4ft 7s 5s 13 16 mph 1024.1mb 59f 58f
5:50pm 4ft 8s 6s 13 16 mph 1024.7mb 59f 58f
4:50pm 4ft 8s 6s 11 13 mph 1025.4mb 58f 58f
3:50pm 4.5ft 7s 6s 7 9 mph 1026mb 60f 58f
2:50pm 4.5ft 8s 6s 4 7 mph 1026.4mb 58f 58f
1:50pm 5ft 8s 6s  -  2 mph 1026.8mb 58f 58f
12:50pm 5ft 8s 6s 2 4 mph 1027.1mb 57f 57f
11:50am 5ft 8s 6s 4 7 mph 1027mb 58f 57f
10:50am 5ft 7s 6s 7 9 mph 1027mb 58f 57f
9:50am 5.5ft 8s 6s 9 11 mph 1026.9mb 58f 57f
8:50am 5ft 8s 6s 7 9 mph 1026.6mb 58f 56f
7:50am 5ft 7s 6s 4 7 mph 1026.3mb 58f 56f
6:50am 4.5ft 8s 6s 7 9 mph 1025.7mb 57f 56f
4:50am 4.5ft 7s 6s 7 9 mph 1024.9mb 57f 57f
3:50am 4.5ft 7s 6s 7
mph
1024.6mb 57f 57f
2:50am 3.5ft 6s 5s 7 9 mph 1024.4mb 57f 57f
1:50am 3.5ft 6s 5s 9 11 mph 1024.1mb 57f 57f
12:50am 3ft 6s 5s 9 11 mph 1023.7mb 57f 57f
Mon 06/20 11:50pm 3.5ft 14s 5s 9 11 mph 1023.4mb 58f 57f
10:50pm 3ft 7s 5s 9
mph
1023.5mb 58f 58f
9:50pm 3ft 14s 5s 7 9 mph 1023.4mb 57f 58f
8:50pm 3.5ft 5s 5s 9 11 mph 1023.3mb 57f 58f